Time;durP1;ratioP1;P1;durP2;ratioP2;P2;SDS_P1;SDS_P2;PMS_P1;PMS_P2;Temp;Humidity;BMP_temperature;BMP_pressure;BME280_temperature;BME280_humidity;BME280_pressure;Samples;Min_cycle;Max_cycle;Signal;HPM_P1;HPM_P2
2024/04/02 00:00:12;;;;;;;4.40;1.70;;;;;;;13.62;64.35;94849.83;108604;1275;22655;-74
2024/04/02 00:03:08;;;;;;;6.50;1.90;;;;;;;13.54;64.64;94860.17;108512;1272;22526;-74
2024/04/02 00:05:41;;;;;;;5.10;1.70;;;;;;;13.48;64.71;94861.91;108531;1275;22565;-74
2024/04/02 00:08:12;;;;;;;6.20;2.00;;;;;;;13.44;64.54;94866.67;108611;1275;22519;-75
2024/04/02 00:10:43;;;;;;;5.50;1.70;;;;;;;13.41;64.84;94866.59;108541;1269;22648;-74
2024/04/02 00:13:13;;;;;;;6.60;1.90;;;;;;;13.40;64.67;94874.55;108510;1269;22539;-74
2024/04/02 00:15:47;;;;;;;6.00;1.70;;;;;;;13.38;64.64;94873.67;108562;1269;22530;-75
2024/04/02 00:18:18;;;;;;;6.20;1.50;;;;;;;13.39;64.70;94877.95;108584;1272;22531;-74
2024/04/02 00:20:49;;;;;;;3.30;1.30;;;;;;;13.38;64.76;94873.59;108597;1275;26463;-74
2024/04/02 00:23:20;;;;;;;5.00;1.70;;;;;;;13.36;64.47;94876.54;108548;1275;22668;-74
2024/04/02 00:25:58;;;;;;;3.30;1.50;;;;;;;13.33;64.39;94876.09;108562;1276;22550;-74
2024/04/02 00:28:29;;;;;;;2.70;1.30;;;;;;;13.33;64.19;94881.79;108574;1275;22522;-74
2024/04/02 00:31:04;;;;;;;4.70;1.30;;;;;;;13.32;64.07;94879.11;108574;1276;22540;-74
2024/04/02 00:33:35;;;;;;;2.30;1.20;;;;;;;13.26;65.01;94864.65;108540;1275;22522;-75
2024/04/02 00:36:07;;;;;;;3.50;1.20;;;;;;;13.17;64.78;94880.34;108603;1275;22540;-75
2024/04/02 00:38:37;;;;;;;2.60;1.20;;;;;;;13.14;64.86;94881.45;108546;1275;22614;-74
2024/04/02 00:41:08;;;;;;;2.90;1.20;;;;;;;13.08;65.60;94873.16;108545;1276;22523;-74
2024/04/02 00:43:38;;;;;;;3.30;1.30;;;;;;;13.03;65.89;94880.09;108557;1275;22535;-74
2024/04/02 00:46:09;;;;;;;2.80;1.30;;;;;;;12.98;65.83;94874.85;108602;1275;22656;-74
2024/04/02 00:48:40;;;;;;;3.80;1.90;;;;;;;12.98;65.78;94872.70;108557;1269;22530;-74
2024/04/02 00:51:12;;;;;;;1.80;1.20;;;;;;;12.94;65.94;94870.84;108586;1275;22526;-74
2024/04/02 00:53:43;;;;;;;2.00;1.40;;;;;;;12.89;66.73;94864.77;108526;1269;22534;-74
2024/04/02 00:56:13;;;;;;;1.70;1.10;;;;;;;12.85;66.58;94855.91;108590;1269;22937;-74
2024/04/02 00:58:44;;;;;;;2.00;0.80;;;;;;;12.84;67.00;94854.80;108495;1274;22524;-74
2024/04/02 01:01:14;;;;;;;1.50;1.00;;;;;;;12.80;67.48;94854.46;108591;1272;22528;-74
2024/04/02 01:03:45;;;;;;;4.00;1.00;;;;;;;12.74;67.41;94860.00;108512;1275;22524;-74
2024/04/02 01:06:16;;;;;;;5.00;1.60;;;;;;;12.72;67.46;94853.55;108524;1275;22526;-74
2024/04/02 01:08:47;;;;;;;2.00;0.90;;;;;;;12.70;67.64;94842.71;108609;1275;22999;-74
2024/04/02 01:11:21;;;;;;;2.80;1.10;;;;;;;12.66;67.62;94850.55;108597;1272;22524;-74
2024/04/02 01:13:52;;;;;;;3.10;1.20;;;;;;;12.64;67.92;94851.23;108643;1275;22530;-74
2024/04/02 01:16:23;;;;;;;3.80;1.00;;;;;;;12.62;67.74;94847.16;108590;1275;22530;-74
2024/04/02 01:18:53;;;;;;;1.50;0.80;;;;;;;12.63;67.56;94839.89;108561;1275;22534;-74
2024/04/02 01:21:24;;;;;;;2.50;1.20;;;;;;;12.61;67.73;94838.17;108575;1275;22545;-74
2024/04/02 01:23:54;;;;;;;1.70;1.10;;;;;;;12.58;67.87;94844.75;108534;1275;22556;-74
2024/04/02 01:26:26;;;;;;;1.50;0.90;;;;;;;12.53;68.39;94834.81;108585;1272;22522;-74
2024/04/02 01:28:58;;;;;;;1.80;1.00;;;;;;;12.44;69.60;94835.68;108584;1275;26587;-74
2024/04/02 01:31:29;;;;;;;3.50;1.30;;;;;;;12.34;70.36;94837.95;108567;1269;22672;-74
2024/04/02 01:34:00;;;;;;;3.20;1.10;;;;;;;12.27;70.25;94848.84;108531;1273;22531;-75
2024/04/02 01:36:33;;;;;;;1.00;0.80;;;;;;;12.27;70.03;94850.80;108572;1275;22566;-74
2024/04/02 01:39:05;;;;;;;2.80;1.40;;;;;;;12.27;70.53;94858.00;108602;1272;22543;-74
2024/04/02 01:41:36;;;;;;;1.30;0.70;;;;;;;12.27;70.19;94864.09;108548;1275;22538;-74
2024/04/02 01:44:08;;;;;;;1.60;1.10;;;;;;;12.29;70.16;94865.58;108543;1275;22542;-74
2024/04/02 01:46:39;;;;;;;1.70;1.00;;;;;;;12.24;70.60;94863.28;108584;1275;22638;-74
2024/04/02 01:49:10;;;;;;;1.50;1.00;;;;;;;12.19;70.58;94867.39;108550;1269;22572;-74
2024/04/02 01:51:42;;;;;;;2.30;1.40;;;;;;;12.18;70.74;94872.88;108545;1272;24429;-74
2024/04/02 01:54:14;;;;;;;2.50;1.30;;;;;;;12.15;71.41;94878.92;108368;1273;148224;-74
2024/04/02 01:56:44;;;;;;;2.10;1.00;;;;;;;12.11;71.61;94877.47;108511;1272;24298;-74
2024/04/02 01:59:15;;;;;;;4.00;1.10;;;;;;;12.11;71.73;94880.63;108491;1269;22529;-74
2024/04/02 02:01:46;;;;;;;3.80;1.30;;;;;;;12.06;72.08;94905.73;108469;1275;22584;-74
2024/04/02 02:04:16;;;;;;;3.50;1.60;;;;;;;12.02;72.41;94924.63;108504;1272;22515;-74
2024/04/02 02:06:47;;;;;;;2.70;1.30;;;;;;;11.99;72.74;94931.30;108518;1275;22542;-74
2024/04/02 02:09:17;;;;;;;3.50;1.40;;;;;;;11.94;73.12;94932.26;108572;1275;22623;-74
2024/04/02 02:11:48;;;;;;;3.10;1.70;;;;;;;11.92;73.30;94922.34;108577;1275;24341;-74
2024/04/02 02:14:18;;;;;;;2.60;1.50;;;;;;;11.84;73.97;94904.11;108548;1265;22563;-74
2024/04/02 02:16:51;;;;;;;3.90;2.00;;;;;;;11.76;74.38;94878.23;108594;1272;22601;-74
2024/04/02 02:19:21;;;;;;;3.70;1.40;;;;;;;11.69;75.11;94870.63;108549;1270;22535;-74
2024/04/02 02:21:52;;;;;;;4.20;2.10;;;;;;;11.51;76.78;94858.27;108499;1275;22562;-74
2024/04/02 02:24:23;;;;;;;2.30;1.50;;;;;;;11.32;78.36;94850.44;108599;1275;25423;-74
2024/04/02 02:26:56;;;;;;;1.80;1.30;;;;;;;11.21;78.27;94854.39;108559;1272;26611;-75
2024/04/02 02:29:26;;;;;;;1.50;1.30;;;;;;;11.18;78.47;94841.48;108548;1275;25264;-75
2024/04/02 02:31:57;;;;;;;1.70;1.30;;;;;;;11.12;78.80;94852.16;108561;1275;22561;-75
2024/04/02 02:34:28;;;;;;;1.30;1.10;;;;;;;11.05;79.42;94863.36;108518;1272;22522;-74
2024/04/02 02:36:59;;;;;;;1.20;1.00;;;;;;;10.96;80.55;94876.42;108564;1275;25436;-74
2024/04/02 02:39:30;;;;;;;1.20;1.00;;;;;;;10.87;80.97;94886.41;108520;1274;22519;-75
2024/04/02 02:42:00;;;;;;;1.20;0.90;;;;;;;10.83;81.12;94890.57;108534;1269;22534;-74
2024/04/02 02:44:31;;;;;;;1.00;0.90;;;;;;;10.80;81.71;94892.55;108559;1274;22528;-75
2024/04/02 02:47:01;;;;;;;0.70;0.70;;;;;;;10.74;82.28;94897.57;108567;1275;22533;-74
2024/04/02 02:49:32;;;;;;;0.70;0.50;;;;;;;10.68;82.68;94891.44;108514;1272;22555;-75
2024/04/02 02:52:03;;;;;;;0.70;0.40;;;;;;;10.61;82.98;94884.66;108500;1268;23350;-75
2024/04/02 02:54:35;;;;;;;0.20;0.20;;;;;;;10.54;83.47;94882.10;108594;1274;22573;-75
2024/04/02 02:57:06;;;;;;;0.40;0.20;;;;;;;10.46;83.43;94884.83;108544;1275;22522;-74
2024/04/02 02:59:36;;;;;;;0.40;0.40;;;;;;;10.38;84.75;94889.34;108605;1275;22548;-74
2024/04/02 03:02:07;;;;;;;0.20;0.10;;;;;;;10.29;84.76;94893.23;108562;1272;22519;-74
2024/04/02 03:04:40;;;;;;;0.00;0.00;;;;;;;10.21;85.02;94899.71;108578;1272;22511;-75
2024/04/02 03:07:10;;;;;;;0.00;0.00;;;;;;;10.12;85.67;94899.04;108581;1275;22549;-74
2024/04/02 03:09:41;;;;;;;0.80;0.20;;;;;;;10.02;86.12;94903.49;108547;1275;22526;-74
2024/04/02 03:12:15;;;;;;;0.10;0.10;;;;;;;9.92;86.71;94904.64;108584;1275;22563;-74
2024/04/02 03:14:45;;;;;;;0.00;0.00;;;;;;;9.82;87.25;94915.43;108524;1275;22504;-75
2024/04/02 03:17:16;;;;;;;0.00;0.00;;;;;;;9.76;87.36;94918.63;108590;1275;22588;-74
2024/04/02 03:19:47;;;;;;;1.00;0.10;;;;;;;9.72;87.09;94914.77;108545;1269;22521;-74
2024/04/02 03:22:17;;;;;;;0.40;0.00;;;;;;;9.68;87.48;94905.61;108573;1270;22971;-75
2024/04/02 03:24:51;;;;;;;0.30;0.10;;;;;;;9.64;87.65;94898.84;108584;1275;24247;-74
2024/04/02 03:27:22;;;;;;;0.00;0.00;;;;;;;9.57;87.66;94898.47;108580;1269;25430;-74
2024/04/02 03:29:53;;;;;;;0.00;0.00;;;;;;;9.48;88.42;94888.03;108636;1269;22531;-74
2024/04/02 03:32:23;;;;;;;0.00;0.00;;;;;;;9.36;87.98;94883.58;108549;1269;25237;-74
2024/04/02 03:34:54;;;;;;;0.20;0.00;;;;;;;9.28;87.69;94886.79;108565;1272;22544;-74
2024/04/02 03:37:24;;;;;;;0.20;0.10;;;;;;;9.24;87.80;94887.97;108579;1275;22643;-74
2024/04/02 03:39:55;;;;;;;0.60;0.20;;;;;;;9.21;88.15;94889.31;108592;1275;22533;-74
2024/04/02 03:42:28;;;;;;;0.10;0.10;;;;;;;9.13;87.98;94899.08;108547;1275;23137;-74
2024/04/02 03:44:59;;;;;;;0.20;0.10;;;;;;;9.04;89.04;94897.92;108542;1275;22642;-74
2024/04/02 03:47:29;;;;;;;0.10;0.10;;;;;;;8.96;89.05;94903.99;108550;1269;22542;-74
2024/04/02 03:50:00;;;;;;;1.40;0.10;;;;;;;8.90;89.07;94900.02;108555;1275;25493;-74
2024/04/02 03:52:30;;;;;;;0.10;0.10;;;;;;;8.88;89.07;94900.45;108572;1275;22647;-74
2024/04/02 03:55:01;;;;;;;0.50;0.00;;;;;;;8.88;88.85;94899.09;108589;1275;24209;-74
2024/04/02 03:57:32;;;;;;;0.00;0.00;;;;;;;8.84;89.08;94894.44;108532;1274;22718;-74
2024/04/02 04:00:02;;;;;;;0.80;0.10;;;;;;;8.82;89.17;94901.05;108586;1275;22546;-74
2024/04/02 04:02:33;;;;;;;0.00;0.00;;;;;;;8.79;88.90;94897.64;108575;1269;22535;-74
2024/04/02 04:05:04;;;;;;;0.10;0.10;;;;;;;8.79;88.58;94908.38;108567;1275;22527;-74
2024/04/02 04:07:34;;;;;;;7.40;3.60;;;;;;;8.80;88.62;94910.80;108603;1275;23177;-75
2024/04/02 04:10:06;;;;;;;0.20;0.20;;;;;;;8.75;88.59;94920.33;108509;1271;22509;-75
2024/04/02 04:12:37;;;;;;;1.60;1.50;;;;;;;8.72;88.62;94931.40;108528;1275;25284;-75
2024/04/02 04:15:08;;;;;;;1.20;1.10;;;;;;;8.68;88.81;94938.13;108534;1275;24207;-75
2024/04/02 04:17:39;;;;;;;0.60;0.10;;;;;;;8.62;89.21;94941.98;108534;1276;24470;-75
2024/04/02 04:20:10;;;;;;;0.10;0.10;;;;;;;8.58;89.17;94959.30;108553;1275;25404;-74
2024/04/02 04:22:41;;;;;;;1.10;0.20;;;;;;;8.63;88.87;94963.89;108570;1275;22538;-74
2024/04/02 04:25:12;;;;;;;0.20;0.20;;;;;;;8.60;88.70;94967.77;108554;1269;23847;-74
2024/04/02 04:27:45;;;;;;;0.40;0.20;;;;;;;8.55;88.97;94966.73;108562;1272;25240;-74
2024/04/02 04:30:15;;;;;;;0.10;0.10;;;;;;;8.46;89.26;94965.73;108602;1275;22529;-74
2024/04/02 04:32:46;;;;;;;0.10;0.10;;;;;;;8.41;89.42;94963.57;108517;1275;22529;-74
2024/04/02 04:35:17;;;;;;;0.20;0.10;;;;;;;8.36;89.68;94960.95;108517;1275;22535;-74
2024/04/02 04:37:47;;;;;;;1.10;0.70;;;;;;;8.37;89.73;94963.84;108550;1275;22541;-74
2024/04/02 04:40:18;;;;;;;1.50;0.20;;;;;;;8.34;89.53;94973.35;108546;1275;22633;-74
2024/04/02 04:42:48;;;;;;;0.20;0.10;;;;;;;8.34;89.47;94980.70;108521;1271;22547;-74
2024/04/02 04:45:19;;;;;;;0.10;0.00;;;;;;;8.37;89.67;94964.36;108508;1275;24427;-74
2024/04/02 04:47:50;;;;;;;0.10;0.10;;;;;;;8.36;90.03;94970.89;108575;1274;25357;-74
2024/04/02 04:50:20;;;;;;;0.10;0.10;;;;;;;8.35;90.11;94969.48;108582;1251;22942;-74
2024/04/02 04:52:52;;;;;;;0.10;0.10;;;;;;;8.33;90.65;94965.86;108571;1272;22545;-74
2024/04/02 04:55:22;;;;;;;0.10;0.10;;;;;;;8.31;90.59;94969.23;108547;1275;26440;-74
2024/04/02 04:57:53;;;;;;;0.60;0.00;;;;;;;8.29;90.50;94970.31;108568;1275;22522;-75
2024/04/02 05:00:24;;;;;;;0.10;0.10;;;;;;;8.26;90.61;94964.34;108559;1275;22559;-75
2024/04/02 05:02:54;;;;;;;0.30;0.10;;;;;;;8.22;90.98;94956.63;108564;1275;22523;-74
2024/04/02 05:05:25;;;;;;;0.00;0.00;;;;;;;8.19;90.80;94970.13;108588;1275;23537;-74
2024/04/02 05:08:13;;;;;;;0.80;0.70;;;;;;;8.16;90.79;94965.34;108639;1275;22636;-74
2024/04/02 05:10:44;;;;;;;0.10;0.00;;;;;;;8.10;90.86;94954.60;108490;1275;22521;-74
2024/04/02 05:13:18;;;;;;;0.10;0.10;;;;;;;8.03;90.65;94972.36;108589;1275;22926;-74
2024/04/02 05:15:48;;;;;;;0.10;0.10;;;;;;;8.01;90.45;94971.27;108658;1275;24360;-74
2024/04/02 05:18:19;;;;;;;0.00;0.00;;;;;;;7.99;90.16;94977.20;108570;1275;22534;-73
2024/04/02 05:20:50;;;;;;;0.00;0.00;;;;;;;7.96;90.21;94978.08;108561;1275;25406;-73
2024/04/02 05:23:22;;;;;;;0.20;0.10;;;;;;;7.86;89.40;94963.55;108556;1274;24266;-74
2024/04/02 05:25:57;;;;;;;0.10;0.00;;;;;;;7.78;89.07;94993.02;108592;1275;24577;-74
2024/04/02 05:28:28;;;;;;;0.30;0.10;;;;;;;7.72;89.23;94987.70;108629;1275;22516;-74
2024/04/02 05:30:59;;;;;;;0.10;0.00;;;;;;;7.66;89.24;95000.66;108596;1275;22863;-74
2024/04/02 05:33:30;;;;;;;0.20;0.10;;;;;;;7.65;89.12;95005.17;108567;1275;22549;-74
2024/04/02 05:36:01;;;;;;;0.50;0.20;;;;;;;7.62;89.31;95010.00;108542;1275;24436;-74
2024/04/02 05:38:32;;;;;;;0.10;0.10;;;;;;;7.58;89.43;95012.40;108554;1275;22531;-74
2024/04/02 05:41:03;;;;;;;0.20;0.10;;;;;;;7.54;89.80;95015.91;108584;1273;25456;-74
2024/04/02 05:43:33;;;;;;;0.10;0.10;;;;;;;7.52;89.70;95033.83;108557;1275;22531;-74
2024/04/02 05:46:05;;;;;;;0.30;0.00;;;;;;;7.54;89.56;95045.91;108575;1272;22664;-74
2024/04/02 05:48:36;;;;;;;0.10;0.10;;;;;;;7.56;89.47;95053.36;108569;1273;25296;-74
2024/04/02 05:51:07;;;;;;;0.10;0.10;;;;;;;7.56;89.89;95062.80;108609;1275;22529;-74
2024/04/02 05:53:37;;;;;;;0.10;0.00;;;;;;;7.58;89.60;95059.27;108536;1275;22526;-74
2024/04/02 05:56:08;;;;;;;0.10;0.00;;;;;;;7.56;90.07;95062.86;108575;1267;22527;-74
2024/04/02 05:58:39;;;;;;;1.30;0.50;;;;;;;7.54;89.76;95065.33;108606;1275;22528;-74
2024/04/02 06:01:10;;;;;;;0.30;0.30;;;;;;;7.50;89.80;95064.90;108598;1272;25360;-74
2024/04/02 06:03:41;;;;;;;0.80;0.50;;;;;;;7.48;89.60;95070.27;108579;1275;22531;-74
2024/04/02 06:06:12;;;;;;;0.60;0.30;;;;;;;7.48;89.55;95073.02;108607;1267;22646;-74
2024/04/02 06:08:43;;;;;;;0.40;0.30;;;;;;;7.48;89.56;95078.49;108571;1275;24375;-74
2024/04/02 06:11:14;;;;;;;0.50;0.10;;;;;;;7.45;89.50;95086.98;108601;1275;22522;-74
2024/04/02 06:13:44;;;;;;;0.80;0.50;;;;;;;7.46;89.71;95093.14;108534;1275;22532;-74
2024/04/02 06:16:15;;;;;;;2.00;0.60;;;;;;;7.52;89.96;95092.17;108587;1275;25416;-74
2024/04/02 06:18:46;;;;;;;3.80;1.40;;;;;;;7.57;89.82;95105.03;108568;1275;25142;-74
2024/04/02 06:21:17;;;;;;;0.40;0.30;;;;;;;7.56;89.90;95101.73;108532;1273;22532;-74
2024/04/02 06:23:50;;;;;;;0.20;0.20;;;;;;;7.52;90.42;95101.61;108561;1267;25471;-74
2024/04/02 06:26:21;;;;;;;0.20;0.10;;;;;;;7.47;90.54;95107.15;108562;1275;22536;-74
2024/04/02 06:28:51;;;;;;;0.30;0.20;;;;;;;7.41;90.33;95097.92;108590;1267;22526;-74
2024/04/02 06:31:22;;;;;;;0.20;0.20;;;;;;;7.34;89.93;95089.17;108627;1267;23186;-74
2024/04/02 06:33:52;;;;;;;0.20;0.20;;;;;;;7.30;89.79;95086.54;108588;1267;22569;-74
2024/04/02 06:36:23;;;;;;;0.50;0.20;;;;;;;7.27;89.89;95077.86;108540;1269;22588;-74
2024/04/02 06:38:54;;;;;;;0.60;0.20;;;;;;;7.22;90.18;95076.02;108567;1273;22604;-74
2024/04/02 06:41:25;;;;;;;0.60;0.10;;;;;;;7.16;90.67;95066.83;108564;1273;22528;-74
2024/04/02 06:43:56;;;;;;;0.30;0.10;;;;;;;7.12;90.87;95065.65;108585;1271;25512;-75
2024/04/02 06:46:27;;;;;;;0.40;0.00;;;;;;;7.08;90.68;95065.21;108552;1275;22526;-75
2024/04/02 06:48:59;;;;;;;0.00;0.00;;;;;;;7.05;90.76;95070.55;108513;1274;22635;-75
2024/04/02 06:51:31;;;;;;;0.10;0.00;;;;;;;7.01;90.50;95062.55;108609;1267;22560;-75
2024/04/02 06:54:01;;;;;;;0.00;0.00;;;;;;;6.98;90.47;95075.25;108622;1275;25199;-75
2024/04/02 06:56:32;;;;;;;0.30;0.20;;;;;;;6.97;90.40;95085.98;108576;1274;22527;-75
2024/04/02 06:59:03;;;;;;;0.80;0.40;;;;;;;6.97;90.26;95102.40;108582;1275;22533;-75
2024/04/02 07:01:34;;;;;;;0.20;0.10;;;;;;;6.96;90.19;95115.59;108631;1272;25247;-75
2024/04/02 07:04:04;;;;;;;1.60;0.10;;;;;;;7.00;89.98;95117.00;108538;1273;25194;-75
2024/04/02 07:06:36;;;;;;;0.10;0.10;;;;;;;7.01;89.81;95122.34;108533;1275;24489;-75
2024/04/02 07:09:08;;;;;;;0.10;0.00;;;;;;;7.00;89.96;95121.15;108472;1274;22591;-75
2024/04/02 07:11:39;;;;;;;0.20;0.10;;;;;;;6.99;89.73;95121.85;108602;1275;23723;-75
2024/04/02 07:14:10;;;;;;;0.00;0.00;;;;;;;7.00;89.32;95123.23;108530;1275;22709;-75
2024/04/02 07:16:41;;;;;;;0.10;0.10;;;;;;;6.98;89.41;95118.71;108465;1267;22605;-75
2024/04/02 07:19:12;;;;;;;0.10;0.10;;;;;;;6.98;89.59;95121.71;108461;1275;22551;-75
2024/04/02 07:21:43;;;;;;;0.20;0.10;;;;;;;6.98;89.41;95129.84;108500;1275;22529;-75
2024/04/02 07:24:14;;;;;;;0.30;0.20;;;;;;;7.01;89.58;95138.20;108523;1275;22520;-75
2024/04/02 07:26:46;;;;;;;0.90;0.30;;;;;;;7.06;89.59;95148.73;108562;1273;22535;-75
2024/04/02 07:29:16;;;;;;;0.30;0.20;;;;;;;7.10;89.53;95157.34;108571;1269;22585;-75
2024/04/02 07:31:47;;;;;;;0.40;0.20;;;;;;;7.15;89.60;95162.77;108583;1270;22577;-75
2024/04/02 07:34:18;;;;;;;0.40;0.10;;;;;;;7.13;89.77;95167.63;108688;1267;22533;-74
2024/04/02 07:36:49;;;;;;;0.30;0.20;;;;;;;7.05;89.34;95158.02;108615;1269;22526;-74
2024/04/02 07:39:20;;;;;;;0.40;0.40;;;;;;;6.96;88.98;95170.67;108679;1267;22536;-74
2024/04/02 07:41:51;;;;;;;0.30;0.20;;;;;;;6.88;89.16;95181.55;108591;1267;22994;-75
2024/04/02 07:44:22;;;;;;;0.20;0.20;;;;;;;6.81;89.44;95193.67;108651;1268;22787;-75
2024/04/02 07:46:55;;;;;;;0.10;0.10;;;;;;;6.78;88.98;95202.05;108706;1275;22654;-75
2024/04/02 07:49:27;;;;;;;0.50;0.30;;;;;;;6.76;89.09;95212.58;108690;1267;22544;-75
2024/04/02 07:51:58;;;;;;;0.60;0.30;;;;;;;6.76;89.28;95214.20;108667;1273;22530;-75
2024/04/02 07:54:31;;;;;;;0.00;0.00;;;;;;;6.74;89.51;95226.23;108717;1272;22525;-75
2024/04/02 07:57:02;;;;;;;0.20;0.20;;;;;;;6.73;89.89;95228.30;108749;1267;25402;-75
2024/04/02 07:59:33;;;;;;;1.10;0.20;;;;;;;6.72;89.84;95219.84;108572;1269;22699;-75
2024/04/02 08:02:05;;;;;;;0.30;0.30;;;;;;;6.70;89.69;95216.55;108566;1267;22510;-75
2024/04/02 08:04:36;;;;;;;0.20;0.20;;;;;;;6.70;89.55;95211.55;108554;1271;22520;-75
2024/04/02 08:07:08;;;;;;;0.50;0.20;;;;;;;6.75;89.40;95211.52;108609;1270;22732;-74
2024/04/02 08:09:39;;;;;;;2.00;0.40;;;;;;;6.79;89.63;95217.42;108534;1269;22548;-75
2024/04/02 08:12:10;;;;;;;0.80;0.40;;;;;;;6.85;89.71;95211.89;108495;1267;38988;-74
2024/04/02 08:14:41;;;;;;;0.40;0.40;;;;;;;6.87;90.39;95217.34;108585;1267;22570;-74
2024/04/02 08:17:12;;;;;;;0.80;0.70;;;;;;;6.88;90.62;95205.14;108585;1272;22534;-74
2024/04/02 08:19:43;;;;;;;0.80;0.60;;;;;;;6.90;91.29;95217.19;108573;1267;22540;-74
2024/04/02 08:22:16;;;;;;;0.70;0.60;;;;;;;6.90;91.51;95213.55;108573;1271;22547;-74
2024/04/02 08:24:48;;;;;;;0.80;0.40;;;;;;;6.86;91.83;95212.02;108594;1271;22549;-74
2024/04/02 08:27:19;;;;;;;0.40;0.40;;;;;;;6.79;91.70;95235.42;108416;1267;24449;-75
2024/04/02 08:29:50;;;;;;;1.10;0.70;;;;;;;6.76;91.59;95251.77;108576;1267;22569;-74
2024/04/02 08:32:22;;;;;;;1.10;0.60;;;;;;;6.66;91.33;95244.59;108518;1267;23803;-74
2024/04/02 08:34:53;;;;;;;1.10;0.70;;;;;;;6.54;90.62;95264.67;108603;1267;22526;-75
2024/04/02 08:37:24;;;;;;;2.10;1.20;;;;;;;6.44;90.73;95273.91;108579;1273;22637;-74
2024/04/02 08:39:55;;;;;;;1.10;1.00;;;;;;;6.34;90.72;95283.52;108410;1262;22537;-75
2024/04/02 08:42:29;;;;;;;2.80;1.20;;;;;;;6.28;90.78;95288.65;108535;1274;24213;-74
2024/04/02 08:45:02;;;;;;;2.00;1.10;;;;;;;6.22;90.82;95292.94;108555;1267;25433;-74
2024/04/02 08:47:34;;;;;;;1.00;0.90;;;;;;;6.21;90.93;95298.90;108614;1272;23854;-74
2024/04/02 08:50:08;;;;;;;0.90;0.80;;;;;;;6.16;90.96;95299.80;108564;1275;24322;-74
2024/04/02 08:52:39;;;;;;;1.10;0.80;;;;;;;6.13;91.14;95299.35;108552;1272;25434;-75
2024/04/02 08:55:12;;;;;;;2.00;0.60;;;;;;;6.10;90.88;95312.39;108601;1275;22695;-74
2024/04/02 08:57:43;;;;;;;1.10;0.60;;;;;;;6.11;90.98;95330.12;108560;1267;22536;-75
2024/04/02 09:00:17;;;;;;;1.10;0.90;;;;;;;6.08;90.95;95327.58;108583;1271;22537;-75
2024/04/02 09:02:48;;;;;;;1.10;0.90;;;;;;;6.09;90.99;95330.52;108422;1267;24373;-75
2024/04/02 09:05:19;;;;;;;2.20;1.00;;;;;;;6.13;90.96;95332.46;108547;1267;22530;-74
2024/04/02 09:07:50;;;;;;;1.60;1.00;;;;;;;6.11;90.88;95335.74;108600;1275;22553;-75
2024/04/02 09:10:21;;;;;;;1.10;1.00;;;;;;;6.12;90.73;95342.10;108570;1260;22527;-74
2024/04/02 09:12:52;;;;;;;2.50;1.30;;;;;;;6.13;90.85;95340.36;108518;1274;22604;-74
2024/04/02 09:15:24;;;;;;;1.10;0.90;;;;;;;6.15;91.22;95345.48;108673;1267;22534;-74
2024/04/02 09:17:55;;;;;;;2.60;1.60;;;;;;;6.18;91.11;95352.17;108585;1271;22526;-75
2024/04/02 09:20:26;;;;;;;1.10;1.00;;;;;;;6.19;91.15;95359.39;108559;1267;25348;-75
2024/04/02 09:22:57;;;;;;;1.00;0.90;;;;;;;6.19;91.03;95373.70;108544;1267;22540;-75
2024/04/02 09:25:28;;;;;;;1.60;1.30;;;;;;;6.23;90.86;95372.77;108596;1274;22619;-74
2024/04/02 09:27:59;;;;;;;2.60;1.50;;;;;;;6.26;90.84;95374.67;108597;1275;22636;-74
2024/04/02 09:30:31;;;;;;;3.10;1.50;;;;;;;6.27;90.82;95364.71;108558;1274;22526;-74
2024/04/02 09:33:04;;;;;;;1.20;1.00;;;;;;;6.27;90.82;95368.88;108529;1274;22537;-75
2024/04/02 09:35:54;;;;;;;3.00;1.60;;;;;;;6.28;90.79;95377.13;108577;1275;22523;-74
2024/04/02 09:38:23;;;;;;;;;;;;;;;6.32;90.94;95386.60;108586;1267;22500;-73
2024/04/02 09:40:55;;;;;;;1.80;1.40;;;;;;;6.36;91.14;95374.46;108559;1274;22601;-74
2024/04/02 09:43:26;;;;;;;1.60;1.40;;;;;;;6.37;91.49;95380.45;108587;1274;22520;-74
2024/04/02 09:45:59;;;;;;;1.40;1.30;;;;;;;6.39;91.59;95390.21;108593;1271;22523;-74
2024/04/02 09:48:33;;;;;;;2.10;1.60;;;;;;;6.44;91.60;95391.79;108550;1267;22523;-74
2024/04/02 09:51:05;;;;;;;2.50;1.60;;;;;;;6.48;91.50;95399.37;108584;1267;25508;-74
2024/04/02 09:53:36;;;;;;;2.30;1.50;;;;;;;6.53;91.48;95401.73;108482;1275;22632;-74
2024/04/02 09:56:11;;;;;;;3.90;2.00;;;;;;;6.59;91.46;95399.61;108615;1267;22587;-73
2024/04/02 09:58:41;;;;;;;1.80;1.40;;;;;;;6.64;90.86;95404.52;108613;1267;23298;-74
2024/04/02 10:01:13;;;;;;;3.30;1.70;;;;;;;6.69;90.60;95385.53;108616;1275;22573;-73
2024/04/02 10:03:45;;;;;;;3.10;1.90;;;;;;;6.73;90.24;95394.70;108592;1275;22579;-74
2024/04/02 10:06:16;;;;;;;4.70;2.00;;;;;;;6.78;89.97;95402.39;108595;1274;22509;-73
2024/04/02 10:08:48;;;;;;;2.20;1.60;;;;;;;6.79;89.34;95396.46;108617;1275;22985;-74
2024/04/02 10:11:20;;;;;;;2.50;2.00;;;;;;;6.78;89.33;95418.98;108618;1267;22528;-74
2024/04/02 10:13:50;;;;;;;1.90;1.70;;;;;;;6.78;89.58;95425.30;108575;1275;22656;-74
2024/04/02 10:16:22;;;;;;;1.50;1.20;;;;;;;6.78;89.88;95435.52;108578;1275;24255;-74
2024/04/02 10:18:56;;;;;;;2.30;1.80;;;;;;;6.80;90.02;95416.21;108568;1274;25533;-74
2024/04/02 10:21:28;;;;;;;2.90;1.70;;;;;;;6.83;89.89;95439.30;108526;1268;22525;-74
2024/04/02 10:23:59;;;;;;;2.00;1.50;;;;;;;6.86;90.10;95441.88;108615;1274;22701;-74
2024/04/02 10:26:50;;;;;;;2.00;1.40;;;;;;;6.91;90.46;95436.58;108460;1267;22562;-74
2024/04/02 10:29:32;;;;;;;2.60;1.40;;;;;;;6.95;90.31;95438.95;108241;1267;22532;-75
2024/04/02 10:32:03;;;;;;;1.70;1.10;;;;;;;6.95;90.31;95443.88;108227;1267;25685;-75
2024/04/02 10:34:35;;;;;;;1.70;1.50;;;;;;;6.97;90.19;95436.96;108631;1274;22540;-74
2024/04/02 10:37:10;;;;;;;2.60;1.50;;;;;;;7.04;90.59;95440.24;108575;1267;22543;-74
2024/04/02 10:39:41;;;;;;;2.10;1.50;;;;;;;7.10;90.46;95440.95;108620;1267;22528;-74
2024/04/02 10:42:11;;;;;;;2.40;1.90;;;;;;;7.13;90.43;95433.95;108537;1274;22552;-74
2024/04/02 10:44:42;;;;;;;5.50;1.90;;;;;;;7.17;90.66;95442.39;108570;1274;25668;-74
2024/04/02 10:47:20;;;;;;;2.60;1.60;;;;;;;7.27;90.65;95443.24;108533;1274;25508;-74
2024/04/02 10:49:57;;;;;;;2.50;1.70;;;;;;;7.36;90.77;95449.14;108595;1267;22530;-75
2024/04/02 10:52:27;;;;;;;2.00;1.80;;;;;;;7.46;90.60;95444.04;108546;1267;22530;-74
2024/04/02 10:54:58;;;;;;;2.60;1.90;;;;;;;7.52;90.38;95451.60;108489;1267;22567;-74
2024/04/02 10:57:29;;;;;;;3.30;2.30;;;;;;;7.56;90.44;95453.73;108545;1275;26951;-74
2024/04/02 11:00:04;;;;;;;2.40;2.20;;;;;;;7.62;90.48;95447.23;108599;1267;22553;-74
2024/04/02 11:02:36;;;;;;;4.40;2.20;;;;;;;7.63;90.52;95456.33;108533;1267;26141;-74
2024/04/02 11:05:12;;;;;;;2.90;2.20;;;;;;;7.65;90.38;95455.36;108485;1272;22560;-74
2024/04/02 11:07:43;;;;;;;3.30;2.20;;;;;;;7.65;90.54;95459.58;108562;1271;25435;-74
2024/04/02 11:10:15;;;;;;;2.80;2.30;;;;;;;7.67;90.62;95456.41;108623;1274;22562;-74
2024/04/02 11:12:46;;;;;;;4.70;2.80;;;;;;;7.72;90.59;95454.70;108525;1267;22591;-74
2024/04/02 11:15:21;;;;;;;3.30;2.50;;;;;;;7.72;90.61;95453.54;108497;1267;23504;-74
2024/04/02 11:17:52;;;;;;;3.10;2.30;;;;;;;7.69;89.89;95453.90;108595;1274;22539;-74
2024/04/02 11:20:23;;;;;;;3.10;2.50;;;;;;;7.71;90.00;95465.27;108597;1274;22609;-74
2024/04/02 11:25:42;;;;;;;3.00;2.50;;;;;;;7.64;90.11;95474.16;108632;1275;22526;-74
2024/04/02 11:28:13;;;;;;;3.00;2.30;;;;;;;7.64;90.38;95478.53;108632;1274;25266;-75
2024/04/02 11:30:44;;;;;;;3.30;2.80;;;;;;;7.65;90.08;95483.10;108617;1275;22543;-74
2024/04/02 11:33:15;;;;;;;4.70;3.10;;;;;;;7.60;90.14;95489.30;108509;1274;22550;-75
2024/04/02 11:35:46;;;;;;;3.20;1.90;;;;;;;7.54;90.07;95484.31;108579;1267;22536;-74
2024/04/02 11:38:17;;;;;;;2.70;1.70;;;;;;;7.45;90.17;95482.06;108552;1275;24085;-75
2024/04/02 11:40:50;;;;;;;3.60;2.20;;;;;;;7.40;90.20;95484.62;108579;1275;22581;-75
2024/04/02 11:43:21;;;;;;;4.70;2.10;;;;;;;7.37;90.39;95484.23;108575;1271;22539;-75
2024/04/02 11:45:53;;;;;;;2.20;1.30;;;;;;;7.37;90.66;95482.96;108614;1267;22519;-74
2024/04/02 11:48:25;;;;;;;1.40;1.20;;;;;;;7.40;91.23;95475.23;108568;1274;22546;-74
2024/04/02 11:50:56;;;;;;;1.70;1.50;;;;;;;7.44;91.14;95482.60;108434;1267;22538;-74
2024/04/02 11:53:27;;;;;;;3.20;1.80;;;;;;;7.52;91.46;95481.98;108532;1268;24907;-74